sensor_id;sensor_type;location;lat;lon;timestamp;temperature;humidity
2729;DHT22;1372;47.956;7.830;2023-01-28T00:00:54;1.90;99.90
2729;DHT22;1372;47.956;7.830;2023-01-28T00:03:24;1.70;99.90
2729;DHT22;1372;47.956;7.830;2023-01-28T00:06:01;1.90;99.90
2729;DHT22;1372;47.956;7.830;2023-01-28T00:08:32;1.80;99.90
2729;DHT22;1372;47.956;7.830;2023-01-28T00:11:02;1.80;99.90
2729;DHT22;1372;47.956;7.830;2023-01-28T00:13:32;1.90;99.90
2729;DHT22;1372;47.956;7.830;2023-01-28T00:16:03;2.00;99.90
2729;DHT22;1372;47.956;7.830;2023-01-28T00:18:36;1.90;99.90
2729;DHT22;1372;47.956;7.830;2023-01-28T00:21:06;2.00;99.90
2729;DHT22;1372;47.956;7.830;2023-01-28T00:23:38;2.00;99.90
2729;DHT22;1372;47.956;7.830;2023-01-28T00:26:10;2.00;99.90
2729;DHT22;1372;47.956;7.830;2023-01-28T00:28:40;2.00;99.90
2729;DHT22;1372;47.956;7.830;2023-01-28T00:31:14;1.90;99.90
2729;DHT22;1372;47.956;7.830;2023-01-28T00:33:46;1.90;99.90
2729;DHT22;1372;47.956;7.830;2023-01-28T00:36:17;1.90;99.90
2729;DHT22;1372;47.956;7.830;2023-01-28T00:38:50;1.80;99.90
2729;DHT22;1372;47.956;7.830;2023-01-28T00:41:21;1.80;99.90
2729;DHT22;1372;47.956;7.830;2023-01-28T00:43:51;1.80;99.90
2729;DHT22;1372;47.956;7.830;2023-01-28T00:46:21;2.00;99.90
2729;DHT22;1372;47.956;7.830;2023-01-28T00:48:52;2.00;99.90
2729;DHT22;1372;47.956;7.830;2023-01-28T00:51:21;1.90;99.90
2729;DHT22;1372;47.956;7.830;2023-01-28T00:53:50;1.90;99.90
2729;DHT22;1372;47.956;7.830;2023-01-28T00:56:19;2.00;99.90
2729;DHT22;1372;47.956;7.830;2023-01-28T00:58:47;1.90;99.90
2729;DHT22;1372;47.956;7.830;2023-01-28T01:01:17;1.90;99.90
2729;DHT22;1372;47.956;7.830;2023-01-28T01:03:47;1.90;99.90
2729;DHT22;1372;47.956;7.830;2023-01-28T01:06:29;1.80;99.90
2729;DHT22;1372;47.956;7.830;2023-01-28T01:08:59;1.80;99.90
2729;DHT22;1372;47.956;7.830;2023-01-28T01:11:27;1.70;99.90
2729;DHT22;1372;47.956;7.830;2023-01-28T01:13:59;1.70;99.90
2729;DHT22;1372;47.956;7.830;2023-01-28T01:16:31;1.70;99.90
2729;DHT22;1372;47.956;7.830;2023-01-28T01:19:02;1.60;99.90
2729;DHT22;1372;47.956;7.830;2023-01-28T01:21:33;1.70;99.90
2729;DHT22;1372;47.956;7.830;2023-01-28T01:24:02;1.80;99.90
2729;DHT22;1372;47.956;7.830;2023-01-28T01:26:31;1.70;99.90
2729;DHT22;1372;47.956;7.830;2023-01-28T01:29:00;1.70;99.90
2729;DHT22;1372;47.956;7.830;2023-01-28T01:31:28;1.80;99.90
2729;DHT22;1372;47.956;7.830;2023-01-28T01:33:57;1.90;99.90
2729;DHT22;1372;47.956;7.830;2023-01-28T01:36:26;1.90;99.90
2729;DHT22;1372;47.956;7.830;2023-01-28T01:38:58;2.00;99.90
2729;DHT22;1372;47.956;7.830;2023-01-28T01:41:29;2.00;99.90
2729;DHT22;1372;47.956;7.830;2023-01-28T01:44:01;2.10;99.90
2729;DHT22;1372;47.956;7.830;2023-01-28T01:46:36;2.10;99.90
2729;DHT22;1372;47.956;7.830;2023-01-28T01:49:13;2.00;99.90
2729;DHT22;1372;47.956;7.830;2023-01-28T01:51:51;2.10;99.90
2729;DHT22;1372;47.956;7.830;2023-01-28T01:54:24;2.20;99.90
2729;DHT22;1372;47.956;7.830;2023-01-28T01:56:54;2.20;99.90
2729;DHT22;1372;47.956;7.830;2023-01-28T01:59:26;2.20;99.90
2729;DHT22;1372;47.956;7.830;2023-01-28T02:02:00;2.20;99.90
2729;DHT22;1372;47.956;7.830;2023-01-28T02:04:34;2.20;99.90
2729;DHT22;1372;47.956;7.830;2023-01-28T02:07:05;2.20;99.90
2729;DHT22;1372;47.956;7.830;2023-01-28T02:09:37;2.20;99.90
2729;DHT22;1372;47.956;7.830;2023-01-28T02:12:10;2.10;99.90
2729;DHT22;1372;47.956;7.830;2023-01-28T02:14:45;2.00;99.90
2729;DHT22;1372;47.956;7.830;2023-01-28T02:17:16;2.10;99.90
2729;DHT22;1372;47.956;7.830;2023-01-28T02:19:48;2.10;99.90
2729;DHT22;1372;47.956;7.830;2023-01-28T02:22:51;2.10;99.90
2729;DHT22;1372;47.956;7.830;2023-01-28T02:26:31;2.20;99.90
2729;DHT22;1372;47.956;7.830;2023-01-28T02:29:21;2.00;99.90
2729;DHT22;1372;47.956;7.830;2023-01-28T02:31:58;1.90;99.90
2729;DHT22;1372;47.956;7.830;2023-01-28T02:34:37;1.80;99.90
2729;DHT22;1372;47.956;7.830;2023-01-28T02:37:11;1.90;99.90
2729;DHT22;1372;47.956;7.830;2023-01-28T02:39:44;1.90;99.90
2729;DHT22;1372;47.956;7.830;2023-01-28T02:42:18;1.90;99.90
2729;DHT22;1372;47.956;7.830;2023-01-28T02:44:51;1.80;99.90
2729;DHT22;1372;47.956;7.830;2023-01-28T02:47:19;1.90;99.90
2729;DHT22;1372;47.956;7.830;2023-01-28T02:50:07;1.90;99.90
2729;DHT22;1372;47.956;7.830;2023-01-28T02:52:45;1.90;99.90
2729;DHT22;1372;47.956;7.830;2023-01-28T02:55:42;2.00;99.90
2729;DHT22;1372;47.956;7.830;2023-01-28T02:58:19;2.00;99.90
2729;DHT22;1372;47.956;7.830;2023-01-28T03:00:59;2.10;99.90
2729;DHT22;1372;47.956;7.830;2023-01-28T03:03:43;2.20;99.90
2729;DHT22;1372;47.956;7.830;2023-01-28T03:06:19;2.20;99.90
2729;DHT22;1372;47.956;7.830;2023-01-28T03:08:52;2.30;99.90
2729;DHT22;1372;47.956;7.830;2023-01-28T03:11:42;2.20;99.90
2729;DHT22;1372;47.956;7.830;2023-01-28T03:14:29;2.10;99.90
2729;DHT22;1372;47.956;7.830;2023-01-28T03:17:23;2.00;99.90
2729;DHT22;1372;47.956;7.830;2023-01-28T03:20:13;2.20;99.90
2729;DHT22;1372;47.956;7.830;2023-01-28T03:23:04;2.20;99.90
2729;DHT22;1372;47.956;7.830;2023-01-28T03:25:56;2.20;99.90
2729;DHT22;1372;47.956;7.830;2023-01-28T03:28:45;2.30;99.90
2729;DHT22;1372;47.956;7.830;2023-01-28T03:31:34;2.40;99.90
2729;DHT22;1372;47.956;7.830;2023-01-28T03:34:23;2.40;99.90
2729;DHT22;1372;47.956;7.830;2023-01-28T03:37:10;2.30;99.90
2729;DHT22;1372;47.956;7.830;2023-01-28T03:39:40;2.30;99.90
2729;DHT22;1372;47.956;7.830;2023-01-28T03:42:11;2.10;99.90
2729;DHT22;1372;47.956;7.830;2023-01-28T03:44:41;2.20;99.90
2729;DHT22;1372;47.956;7.830;2023-01-28T03:47:23;2.20;99.90
2729;DHT22;1372;47.956;7.830;2023-01-28T03:49:57;2.20;99.90
2729;DHT22;1372;47.956;7.830;2023-01-28T03:52:29;2.30;99.90
2729;DHT22;1372;47.956;7.830;2023-01-28T03:54:59;2.30;99.90
2729;DHT22;1372;47.956;7.830;2023-01-28T03:57:27;2.30;99.90
2729;DHT22;1372;47.956;7.830;2023-01-28T03:59:58;2.30;99.90
2729;DHT22;1372;47.956;7.830;2023-01-28T04:02:27;2.30;99.90
2729;DHT22;1372;47.956;7.830;2023-01-28T04:04:57;2.30;99.90
2729;DHT22;1372;47.956;7.830;2023-01-28T04:07:26;2.30;99.90
2729;DHT22;1372;47.956;7.830;2023-01-28T04:09:55;2.30;99.90
2729;DHT22;1372;47.956;7.830;2023-01-28T04:12:24;2.30;99.90
2729;DHT22;1372;47.956;7.830;2023-01-28T04:14:52;2.30;99.90
2729;DHT22;1372;47.956;7.830;2023-01-28T04:17:21;2.30;99.90
2729;DHT22;1372;47.956;7.830;2023-01-28T04:19:52;2.30;99.90
2729;DHT22;1372;47.956;7.830;2023-01-28T04:22:22;2.30;99.90
2729;DHT22;1372;47.956;7.830;2023-01-28T04:24:51;2.30;99.90
2729;DHT22;1372;47.956;7.830;2023-01-28T04:27:19;2.30;99.90
2729;DHT22;1372;47.956;7.830;2023-01-28T04:29:48;2.20;99.90
2729;DHT22;1372;47.956;7.830;2023-01-28T04:32:17;2.30;99.90
2729;DHT22;1372;47.956;7.830;2023-01-28T04:34:45;2.20;99.90
2729;DHT22;1372;47.956;7.830;2023-01-28T04:37:14;2.30;99.90
2729;DHT22;1372;47.956;7.830;2023-01-28T04:39:44;2.30;99.90
2729;DHT22;1372;47.956;7.830;2023-01-28T04:42:13;2.20;99.90
2729;DHT22;1372;47.956;7.830;2023-01-28T04:44:41;2.10;99.90
2729;DHT22;1372;47.956;7.830;2023-01-28T04:47:10;2.20;99.90
2729;DHT22;1372;47.956;7.830;2023-01-28T04:49:38;2.20;99.90
2729;DHT22;1372;47.956;7.830;2023-01-28T04:52:07;2.10;99.90
2729;DHT22;1372;47.956;7.830;2023-01-28T04:54:35;2.10;99.90
2729;DHT22;1372;47.956;7.830;2023-01-28T04:57:07;2.10;99.90
2729;DHT22;1372;47.956;7.830;2023-01-28T04:59:36;2.10;99.90
2729;DHT22;1372;47.956;7.830;2023-01-28T05:02:05;2.10;99.90
2729;DHT22;1372;47.956;7.830;2023-01-28T05:04:33;2.20;99.90
2729;DHT22;1372;47.956;7.830;2023-01-28T05:07:02;2.20;99.90
2729;DHT22;1372;47.956;7.830;2023-01-28T05:09:30;2.10;99.90
2729;DHT22;1372;47.956;7.830;2023-01-28T05:11:59;2.00;99.90
2729;DHT22;1372;47.956;7.830;2023-01-28T05:14:29;2.00;99.90
2729;DHT22;1372;47.956;7.830;2023-01-28T05:16:57;2.00;99.90
2729;DHT22;1372;47.956;7.830;2023-01-28T05:19:26;2.10;99.90
2729;DHT22;1372;47.956;7.830;2023-01-28T05:21:55;2.10;99.90
2729;DHT22;1372;47.956;7.830;2023-01-28T05:24:24;2.20;99.90
2729;DHT22;1372;47.956;7.830;2023-01-28T05:26:53;2.10;99.90
2729;DHT22;1372;47.956;7.830;2023-01-28T05:29:22;2.10;99.90
2729;DHT22;1372;47.956;7.830;2023-01-28T05:31:54;2.20;99.90
2729;DHT22;1372;47.956;7.830;2023-01-28T05:34:23;2.10;99.90
2729;DHT22;1372;47.956;7.830;2023-01-28T05:36:52;2.10;99.90
2729;DHT22;1372;47.956;7.830;2023-01-28T05:39:21;2.10;99.90
2729;DHT22;1372;47.956;7.830;2023-01-28T05:41:51;2.10;99.90
2729;DHT22;1372;47.956;7.830;2023-01-28T05:44:19;2.10;99.90
2729;DHT22;1372;47.956;7.830;2023-01-28T05:46:50;2.10;99.90
2729;DHT22;1372;47.956;7.830;2023-01-28T05:49:20;2.00;99.90
2729;DHT22;1372;47.956;7.830;2023-01-28T05:51:49;2.00;99.90
2729;DHT22;1372;47.956;7.830;2023-01-28T05:54:18;2.00;99.90
2729;DHT22;1372;47.956;7.830;2023-01-28T05:56:49;2.00;99.90
2729;DHT22;1372;47.956;7.830;2023-01-28T05:59:20;2.00;99.90
2729;DHT22;1372;47.956;7.830;2023-01-28T06:01:48;2.00;99.90
2729;DHT22;1372;47.956;7.830;2023-01-28T06:04:17;2.00;99.90
2729;DHT22;1372;47.956;7.830;2023-01-28T06:06:47;2.20;99.90
2729;DHT22;1372;47.956;7.830;2023-01-28T06:09:16;2.30;99.90
2729;DHT22;1372;47.956;7.830;2023-01-28T06:11:44;2.30;99.90
2729;DHT22;1372;47.956;7.830;2023-01-28T06:14:13;2.30;99.90
2729;DHT22;1372;47.956;7.830;2023-01-28T06:16:42;2.30;99.90
2729;DHT22;1372;47.956;7.830;2023-01-28T06:19:10;2.30;99.90
2729;DHT22;1372;47.956;7.830;2023-01-28T06:21:39;2.30;99.90
2729;DHT22;1372;47.956;7.830;2023-01-28T06:24:10;2.20;99.90
2729;DHT22;1372;47.956;7.830;2023-01-28T06:26:40;2.10;99.90
2729;DHT22;1372;47.956;7.830;2023-01-28T06:29:08;2.20;99.90
2729;DHT22;1372;47.956;7.830;2023-01-28T06:31:37;2.10;99.90
2729;DHT22;1372;47.956;7.830;2023-01-28T06:34:08;2.20;99.90
2729;DHT22;1372;47.956;7.830;2023-01-28T06:36:37;2.20;99.90
2729;DHT22;1372;47.956;7.830;2023-01-28T06:39:07;2.30;99.90
2729;DHT22;1372;47.956;7.830;2023-01-28T06:41:37;2.30;99.90
2729;DHT22;1372;47.956;7.830;2023-01-28T06:44:06;2.30;99.90
2729;DHT22;1372;47.956;7.830;2023-01-28T06:46:35;2.30;99.90
2729;DHT22;1372;47.956;7.830;2023-01-28T06:49:03;2.30;99.90
2729;DHT22;1372;47.956;7.830;2023-01-28T06:51:32;2.30;99.90
2729;DHT22;1372;47.956;7.830;2023-01-28T06:54:01;2.30;99.90
2729;DHT22;1372;47.956;7.830;2023-01-28T06:56:30;2.30;99.90
2729;DHT22;1372;47.956;7.830;2023-01-28T06:59:00;2.30;99.90
2729;DHT22;1372;47.956;7.830;2023-01-28T07:01:29;2.30;99.90
2729;DHT22;1372;47.956;7.830;2023-01-28T07:03:59;2.40;99.90
2729;DHT22;1372;47.956;7.830;2023-01-28T07:06:28;2.30;99.90
2729;DHT22;1372;47.956;7.830;2023-01-28T07:08:57;2.20;99.90
2729;DHT22;1372;47.956;7.830;2023-01-28T07:11:25;2.30;99.90
2729;DHT22;1372;47.956;7.830;2023-01-28T07:13:55;2.20;99.90
2729;DHT22;1372;47.956;7.830;2023-01-28T07:16:25;2.20;99.90
2729;DHT22;1372;47.956;7.830;2023-01-28T07:18:54;2.30;99.90
2729;DHT22;1372;47.956;7.830;2023-01-28T07:21:22;2.20;99.90
2729;DHT22;1372;47.956;7.830;2023-01-28T07:23:51;2.30;99.90
2729;DHT22;1372;47.956;7.830;2023-01-28T07:26:20;2.30;99.90
2729;DHT22;1372;47.956;7.830;2023-01-28T07:28:49;2.40;99.90
2729;DHT22;1372;47.956;7.830;2023-01-28T07:31:18;2.50;99.90
2729;DHT22;1372;47.956;7.830;2023-01-28T07:33:51;2.50;99.90
2729;DHT22;1372;47.956;7.830;2023-01-28T07:36:19;2.50;99.90
2729;DHT22;1372;47.956;7.830;2023-01-28T07:38:48;2.50;99.90
2729;DHT22;1372;47.956;7.830;2023-01-28T07:41:16;2.60;99.90
2729;DHT22;1372;47.956;7.830;2023-01-28T07:43:45;2.60;99.90
2729;DHT22;1372;47.956;7.830;2023-01-28T07:46:14;2.50;99.90
2729;DHT22;1372;47.956;7.830;2023-01-28T07:48:45;2.60;99.90
2729;DHT22;1372;47.956;7.830;2023-01-28T07:51:15;2.60;99.90
2729;DHT22;1372;47.956;7.830;2023-01-28T07:53:44;2.70;99.90
2729;DHT22;1372;47.956;7.830;2023-01-28T07:56:13;2.80;99.90
2729;DHT22;1372;47.956;7.830;2023-01-28T07:58:44;2.60;99.90
2729;DHT22;1372;47.956;7.830;2023-01-28T08:01:13;2.60;99.90
2729;DHT22;1372;47.956;7.830;2023-01-28T08:03:43;2.70;99.90
2729;DHT22;1372;47.956;7.830;2023-01-28T08:06:11;2.70;99.90
2729;DHT22;1372;47.956;7.830;2023-01-28T08:08:41;2.80;99.90
2729;DHT22;1372;47.956;7.830;2023-01-28T08:11:10;2.90;99.90
2729;DHT22;1372;47.956;7.830;2023-01-28T08:13:39;3.00;99.90
2729;DHT22;1372;47.956;7.830;2023-01-28T08:16:08;2.90;99.90
2729;DHT22;1372;47.956;7.830;2023-01-28T08:18:36;2.80;99.90
2729;DHT22;1372;47.956;7.830;2023-01-28T08:21:05;2.80;99.90
2729;DHT22;1372;47.956;7.830;2023-01-28T08:23:34;2.80;99.90
2729;DHT22;1372;47.956;7.830;2023-01-28T08:26:04;2.90;99.90
2729;DHT22;1372;47.956;7.830;2023-01-28T08:28:33;2.90;99.90
2729;DHT22;1372;47.956;7.830;2023-01-28T08:31:02;2.90;99.90
2729;DHT22;1372;47.956;7.830;2023-01-28T08:33:31;2.80;99.90
2729;DHT22;1372;47.956;7.830;2023-01-28T08:36:02;2.90;99.90
2729;DHT22;1372;47.956;7.830;2023-01-28T08:38:31;3.00;99.90
2729;DHT22;1372;47.956;7.830;2023-01-28T08:41:03;3.00;99.90
2729;DHT22;1372;47.956;7.830;2023-01-28T08:43:34;3.00;99.90
2729;DHT22;1372;47.956;7.830;2023-01-28T08:46:05;3.00;99.90
2729;DHT22;1372;47.956;7.830;2023-01-28T08:48:34;3.00;99.90
2729;DHT22;1372;47.956;7.830;2023-01-28T08:51:04;3.00;99.90
2729;DHT22;1372;47.956;7.830;2023-01-28T08:53:33;3.10;99.90
2729;DHT22;1372;47.956;7.830;2023-01-28T08:56:04;3.20;99.90
2729;DHT22;1372;47.956;7.830;2023-01-28T08:58:33;3.20;99.90
2729;DHT22;1372;47.956;7.830;2023-01-28T09:01:03;3.10;99.90
2729;DHT22;1372;47.956;7.830;2023-01-28T09:03:33;3.20;99.90
2729;DHT22;1372;47.956;7.830;2023-01-28T09:06:03;3.40;99.90
2729;DHT22;1372;47.956;7.830;2023-01-28T09:08:33;3.40;99.90
2729;DHT22;1372;47.956;7.830;2023-01-28T09:11:05;3.20;99.90
2729;DHT22;1372;47.956;7.830;2023-01-28T09:13:34;3.20;99.90
2729;DHT22;1372;47.956;7.830;2023-01-28T09:16:04;3.20;99.90
2729;DHT22;1372;47.956;7.830;2023-01-28T09:18:33;3.30;99.90
2729;DHT22;1372;47.956;7.830;2023-01-28T09:21:04;3.20;99.90
2729;DHT22;1372;47.956;7.830;2023-01-28T09:23:34;3.30;99.90
2729;DHT22;1372;47.956;7.830;2023-01-28T09:26:05;3.30;99.90
2729;DHT22;1372;47.956;7.830;2023-01-28T09:28:37;3.20;99.90
2729;DHT22;1372;47.956;7.830;2023-01-28T09:31:10;3.20;99.90
2729;DHT22;1372;47.956;7.830;2023-01-28T09:33:40;3.20;99.90
2729;DHT22;1372;47.956;7.830;2023-01-28T09:36:10;3.10;99.90
2729;DHT22;1372;47.956;7.830;2023-01-28T09:38:38;3.20;99.90
2729;DHT22;1372;47.956;7.830;2023-01-28T09:41:24;3.10;99.90
2729;DHT22;1372;47.956;7.830;2023-01-28T09:44:06;3.00;99.90
2729;DHT22;1372;47.956;7.830;2023-01-28T09:46:45;3.10;99.90
2729;DHT22;1372;47.956;7.830;2023-01-28T09:49:18;3.20;99.90
2729;DHT22;1372;47.956;7.830;2023-01-28T09:51:53;3.30;99.90
2729;DHT22;1372;47.956;7.830;2023-01-28T09:54:32;3.30;99.90
2729;DHT22;1372;47.956;7.830;2023-01-28T09:57:11;3.30;99.90
2729;DHT22;1372;47.956;7.830;2023-01-28T09:59:41;3.40;99.90
2729;DHT22;1372;47.956;7.830;2023-01-28T10:02:35;3.40;99.90
2729;DHT22;1372;47.956;7.830;2023-01-28T10:05:15;3.40;99.90
2729;DHT22;1372;47.956;7.830;2023-01-28T10:07:56;3.50;99.90
2729;DHT22;1372;47.956;7.830;2023-01-28T10:10:33;3.30;99.90
2729;DHT22;1372;47.956;7.830;2023-01-28T10:13:16;3.40;99.90
2729;DHT22;1372;47.956;7.830;2023-01-28T10:16:05;3.40;99.90
2729;DHT22;1372;47.956;7.830;2023-01-28T10:18:44;3.40;99.90
2729;DHT22;1372;47.956;7.830;2023-01-28T10:21:17;3.30;99.90
2729;DHT22;1372;47.956;7.830;2023-01-28T10:23:55;3.40;99.90
2729;DHT22;1372;47.956;7.830;2023-01-28T10:26:32;3.40;99.90
2729;DHT22;1372;47.956;7.830;2023-01-28T10:29:11;3.50;99.90
2729;DHT22;1372;47.956;7.830;2023-01-28T10:31:46;3.50;99.90
2729;DHT22;1372;47.956;7.830;2023-01-28T10:34:20;3.40;99.90
2729;DHT22;1372;47.956;7.830;2023-01-28T10:36:50;3.50;99.90
2729;DHT22;1372;47.956;7.830;2023-01-28T10:39:20;3.60;99.90
2729;DHT22;1372;47.956;7.830;2023-01-28T10:41:50;3.60;99.90
2729;DHT22;1372;47.956;7.830;2023-01-28T10:44:30;3.60;99.90
2729;DHT22;1372;47.956;7.830;2023-01-28T10:47:05;3.60;99.90
2729;DHT22;1372;47.956;7.830;2023-01-28T10:49:41;3.50;99.90
2729;DHT22;1372;47.956;7.830;2023-01-28T10:52:12;3.50;99.90
2729;DHT22;1372;47.956;7.830;2023-01-28T10:54:42;3.60;99.90
2729;DHT22;1372;47.956;7.830;2023-01-28T10:57:12;3.70;99.90
2729;DHT22;1372;47.956;7.830;2023-01-28T10:59:45;3.80;99.90
2729;DHT22;1372;47.956;7.830;2023-01-28T11:02:24;3.70;99.90
2729;DHT22;1372;47.956;7.830;2023-01-28T11:05:05;3.70;99.90
2729;DHT22;1372;47.956;7.830;2023-01-28T11:07:42;3.80;99.90
2729;DHT22;1372;47.956;7.830;2023-01-28T11:10:25;3.80;99.90
2729;DHT22;1372;47.956;7.830;2023-01-28T11:12:59;3.70;99.90
2729;DHT22;1372;47.956;7.830;2023-01-28T11:15:30;3.60;99.90
2729;DHT22;1372;47.956;7.830;2023-01-28T11:18:02;3.50;99.90
2729;DHT22;1372;47.956;7.830;2023-01-28T11:20:37;3.50;99.90
2729;DHT22;1372;47.956;7.830;2023-01-28T11:23:17;3.60;99.90
2729;DHT22;1372;47.956;7.830;2023-01-28T11:25:48;3.70;99.90
2729;DHT22;1372;47.956;7.830;2023-01-28T11:28:19;3.90;99.90
2729;DHT22;1372;47.956;7.830;2023-01-28T11:30:53;3.90;99.90
2729;DHT22;1372;47.956;7.830;2023-01-28T11:33:30;3.90;99.90
2729;DHT22;1372;47.956;7.830;2023-01-28T11:36:06;4.10;99.90
2729;DHT22;1372;47.956;7.830;2023-01-28T11:38:48;4.10;99.90
2729;DHT22;1372;47.956;7.830;2023-01-28T11:41:26;4.20;99.90
2729;DHT22;1372;47.956;7.830;2023-01-28T11:43:57;4.20;99.90
2729;DHT22;1372;47.956;7.830;2023-01-28T11:49:36;4.20;99.90
2729;DHT22;1372;47.956;7.830;2023-01-28T11:52:19;4.30;99.90
2729;DHT22;1372;47.956;7.830;2023-01-28T11:54:59;4.40;99.90
2729;DHT22;1372;47.956;7.830;2023-01-28T11:57:43;4.50;99.90
2729;DHT22;1372;47.956;7.830;2023-01-28T12:00:30;4.60;99.90
2729;DHT22;1372;47.956;7.830;2023-01-28T12:03:20;4.70;99.90
2729;DHT22;1372;47.956;7.830;2023-01-28T12:06:09;4.70;99.90
2729;DHT22;1372;47.956;7.830;2023-01-28T12:08:50;4.70;99.90
2729;DHT22;1372;47.956;7.830;2023-01-28T12:11:31;4.70;99.90
2729;DHT22;1372;47.956;7.830;2023-01-28T12:14:33;4.60;99.90
2729;DHT22;1372;47.956;7.830;2023-01-28T12:17:20;4.60;99.90
2729;DHT22;1372;47.956;7.830;2023-01-28T12:23:01;4.70;99.90
2729;DHT22;1372;47.956;7.830;2023-01-28T12:25:53;4.90;99.90
2729;DHT22;1372;47.956;7.830;2023-01-28T12:28:43;4.70;99.90
2729;DHT22;1372;47.956;7.830;2023-01-28T12:34:41;4.80;99.90
2729;DHT22;1372;47.956;7.830;2023-01-28T12:37:22;4.70;99.90
2729;DHT22;1372;47.956;7.830;2023-01-28T12:43:02;4.90;99.90
2729;DHT22;1372;47.956;7.830;2023-01-28T12:45:38;4.90;99.90
2729;DHT22;1372;47.956;7.830;2023-01-28T12:48:10;4.80;99.90
2729;DHT22;1372;47.956;7.830;2023-01-28T12:50:45;4.70;99.90
2729;DHT22;1372;47.956;7.830;2023-01-28T12:53:22;4.70;99.90
2729;DHT22;1372;47.956;7.830;2023-01-28T12:56:02;4.70;99.90
2729;DHT22;1372;47.956;7.830;2023-01-28T12:58:38;4.70;99.90
2729;DHT22;1372;47.956;7.830;2023-01-28T13:01:15;4.80;99.90
2729;DHT22;1372;47.956;7.830;2023-01-28T13:03:52;4.80;99.90
2729;DHT22;1372;47.956;7.830;2023-01-28T13:06:28;4.70;99.90
2729;DHT22;1372;47.956;7.830;2023-01-28T13:09:02;4.70;99.90
2729;DHT22;1372;47.956;7.830;2023-01-28T13:11:40;4.80;99.90
2729;DHT22;1372;47.956;7.830;2023-01-28T13:14:11;4.80;99.90
2729;DHT22;1372;47.956;7.830;2023-01-28T13:16:40;4.80;99.90
2729;DHT22;1372;47.956;7.830;2023-01-28T13:19:22;4.80;99.90
2729;DHT22;1372;47.956;7.830;2023-01-28T13:21:54;4.70;99.90
2729;DHT22;1372;47.956;7.830;2023-01-28T13:24:30;4.70;99.90
2729;DHT22;1372;47.956;7.830;2023-01-28T13:27:12;4.70;99.90
2729;DHT22;1372;47.956;7.830;2023-01-28T13:30:00;4.70;99.90
2729;DHT22;1372;47.956;7.830;2023-01-28T13:32:34;4.70;99.90
2729;DHT22;1372;47.956;7.830;2023-01-28T13:35:06;4.60;99.90
2729;DHT22;1372;47.956;7.830;2023-01-28T13:37:52;4.70;99.90
2729;DHT22;1372;47.956;7.830;2023-01-28T13:40:25;4.60;99.90
2729;DHT22;1372;47.956;7.830;2023-01-28T13:43:00;4.60;99.90
2729;DHT22;1372;47.956;7.830;2023-01-28T13:45:30;4.50;99.90
2729;DHT22;1372;47.956;7.830;2023-01-28T13:48:13;4.50;99.90
2729;DHT22;1372;47.956;7.830;2023-01-28T13:50:51;4.50;99.90
2729;DHT22;1372;47.956;7.830;2023-01-28T13:53:38;4.50;99.90
2729;DHT22;1372;47.956;7.830;2023-01-28T13:56:18;4.60;99.90
2729;DHT22;1372;47.956;7.830;2023-01-28T13:59:35;4.50;99.90
2729;DHT22;1372;47.956;7.830;2023-01-28T14:08:58;4.40;99.90
2729;DHT22;1372;47.956;7.830;2023-01-28T14:12:06;4.40;99.90
2729;DHT22;1372;47.956;7.830;2023-01-28T14:15:08;4.30;99.90
2729;DHT22;1372;47.956;7.830;2023-01-28T14:17:45;4.30;99.90
2729;DHT22;1372;47.956;7.830;2023-01-28T14:20:18;4.20;99.90
2729;DHT22;1372;47.956;7.830;2023-01-28T14:22:48;4.20;99.90
2729;DHT22;1372;47.956;7.830;2023-01-28T14:25:26;4.20;99.90
2729;DHT22;1372;47.956;7.830;2023-01-28T14:28:00;4.20;99.90
2729;DHT22;1372;47.956;7.830;2023-01-28T14:30:40;4.20;99.90
2729;DHT22;1372;47.956;7.830;2023-01-28T14:33:11;4.20;99.90
2729;DHT22;1372;47.956;7.830;2023-01-28T14:35:44;4.30;99.90
2729;DHT22;1372;47.956;7.830;2023-01-28T14:38:16;4.40;99.90
2729;DHT22;1372;47.956;7.830;2023-01-28T14:40:48;4.40;99.90
2729;DHT22;1372;47.956;7.830;2023-01-28T14:43:21;4.30;99.90
2729;DHT22;1372;47.956;7.830;2023-01-28T14:46:03;4.30;99.90
2729;DHT22;1372;47.956;7.830;2023-01-28T14:48:43;4.30;99.90
2729;DHT22;1372;47.956;7.830;2023-01-28T14:51:31;4.20;99.90
2729;DHT22;1372;47.956;7.830;2023-01-28T14:54:27;4.30;99.90
2729;DHT22;1372;47.956;7.830;2023-01-28T14:57:27;4.30;99.90
2729;DHT22;1372;47.956;7.830;2023-01-28T15:00:02;4.40;99.90
2729;DHT22;1372;47.956;7.830;2023-01-28T15:02:43;4.50;99.90
2729;DHT22;1372;47.956;7.830;2023-01-28T15:05:16;4.20;99.90
2729;DHT22;1372;47.956;7.830;2023-01-28T15:07:47;4.10;99.90
2729;DHT22;1372;47.956;7.830;2023-01-28T15:10:19;4.10;99.90
2729;DHT22;1372;47.956;7.830;2023-01-28T15:12:51;4.20;99.90
2729;DHT22;1372;47.956;7.830;2023-01-28T15:15:28;4.20;99.90
2729;DHT22;1372;47.956;7.830;2023-01-28T15:18:02;4.20;99.90
2729;DHT22;1372;47.956;7.830;2023-01-28T15:20:32;4.10;99.90
2729;DHT22;1372;47.956;7.830;2023-01-28T15:23:02;4.00;99.90
2729;DHT22;1372;47.956;7.830;2023-01-28T15:25:34;4.10;99.90
2729;DHT22;1372;47.956;7.830;2023-01-28T15:28:02;4.10;99.90
2729;DHT22;1372;47.956;7.830;2023-01-28T15:30:31;4.20;99.90
2729;DHT22;1372;47.956;7.830;2023-01-28T15:33:03;4.20;99.90
2729;DHT22;1372;47.956;7.830;2023-01-28T15:35:36;4.20;99.90
2729;DHT22;1372;47.956;7.830;2023-01-28T15:38:04;4.20;99.90
2729;DHT22;1372;47.956;7.830;2023-01-28T15:40:40;4.20;99.90
2729;DHT22;1372;47.956;7.830;2023-01-28T15:43:17;4.20;99.90
2729;DHT22;1372;47.956;7.830;2023-01-28T15:45:49;4.00;99.90
2729;DHT22;1372;47.956;7.830;2023-01-28T15:48:24;4.10;99.90
2729;DHT22;1372;47.956;7.830;2023-01-28T15:50:58;4.10;99.90
2729;DHT22;1372;47.956;7.830;2023-01-28T15:53:30;4.10;99.90
2729;DHT22;1372;47.956;7.830;2023-01-28T15:56:06;4.10;99.90
2729;DHT22;1372;47.956;7.830;2023-01-28T15:58:39;4.10;99.90
2729;DHT22;1372;47.956;7.830;2023-01-28T16:01:14;4.00;99.90
2729;DHT22;1372;47.956;7.830;2023-01-28T16:03:46;4.00;99.90
2729;DHT22;1372;47.956;7.830;2023-01-28T16:06:33;4.00;99.90
2729;DHT22;1372;47.956;7.830;2023-01-28T16:09:06;4.00;99.90
2729;DHT22;1372;47.956;7.830;2023-01-28T16:11:44;4.00;99.90
2729;DHT22;1372;47.956;7.830;2023-01-28T16:14:20;4.00;99.90
2729;DHT22;1372;47.956;7.830;2023-01-28T16:16:51;4.10;99.90
2729;DHT22;1372;47.956;7.830;2023-01-28T16:19:42;4.00;99.90
2729;DHT22;1372;47.956;7.830;2023-01-28T16:22:18;3.90;99.90
2729;DHT22;1372;47.956;7.830;2023-01-28T16:24:49;3.80;99.90
2729;DHT22;1372;47.956;7.830;2023-01-28T16:27:21;3.90;99.90
2729;DHT22;1372;47.956;7.830;2023-01-28T16:29:51;3.90;99.90
2729;DHT22;1372;47.956;7.830;2023-01-28T16:32:33;3.90;99.90
2729;DHT22;1372;47.956;7.830;2023-01-28T16:35:11;3.90;99.90
2729;DHT22;1372;47.956;7.830;2023-01-28T16:37:41;4.00;99.90
2729;DHT22;1372;47.956;7.830;2023-01-28T16:40:11;4.00;99.90
2729;DHT22;1372;47.956;7.830;2023-01-28T16:42:45;4.00;99.90
2729;DHT22;1372;47.956;7.830;2023-01-28T16:45:16;4.00;99.90
2729;DHT22;1372;47.956;7.830;2023-01-28T16:47:47;3.90;99.90
2729;DHT22;1372;47.956;7.830;2023-01-28T16:50:18;3.90;99.90
2729;DHT22;1372;47.956;7.830;2023-01-28T16:52:50;4.00;99.90
2729;DHT22;1372;47.956;7.830;2023-01-28T16:55:21;4.00;99.90
2729;DHT22;1372;47.956;7.830;2023-01-28T16:57:53;3.90;99.90
2729;DHT22;1372;47.956;7.830;2023-01-28T17:00:25;3.80;99.90
2729;DHT22;1372;47.956;7.830;2023-01-28T17:02:57;3.80;99.90
2729;DHT22;1372;47.956;7.830;2023-01-28T17:05:27;3.90;99.90
2729;DHT22;1372;47.956;7.830;2023-01-28T17:07:56;4.00;99.90
2729;DHT22;1372;47.956;7.830;2023-01-28T17:10:25;3.90;99.90
2729;DHT22;1372;47.956;7.830;2023-01-28T17:12:54;4.00;99.90
2729;DHT22;1372;47.956;7.830;2023-01-28T17:15:25;4.00;99.90
2729;DHT22;1372;47.956;7.830;2023-01-28T17:17:54;4.00;99.90
2729;DHT22;1372;47.956;7.830;2023-01-28T17:20:23;3.90;99.90